Time;durP1;ratioP1;P1;durP2;ratioP2;P2;SDS_P1;SDS_P2;PMS_P1;PMS_P2;Temp;Humidity;BMP_temperature;BMP_pressure;BME280_temperature;BME280_humidity;BME280_pressure;Samples;Min_cycle;Max_cycle;Signal;HPM_P1;HPM_P2
2024/01/07 00:03:58;;;;;;;157.68;147.63;;;0.00;99.90;;;;;;12306774;28;20059;-35
2024/01/07 00:10:00;;;;;;;157.98;147.90;;;0.00;99.90;;;;;;12317231;28;20051;-35
2024/01/07 00:16:03;;;;;;;157.30;147.07;;;0.00;99.90;;;;;;12293139;28;20126;-34
2024/01/07 00:22:05;;;;;;;153.85;143.80;;;0.00;99.90;;;;;;12318566;28;20105;-34
2024/01/07 00:28:07;;;;;;;143.40;134.32;;;0.00;99.90;;;;;;12305067;28;20047;-33
2024/01/07 00:34:08;;;;;;;133.82;125.25;;;0.10;99.90;;;;;;12317437;28;20046;-35
2024/01/07 00:40:11;;;;;;;137.40;128.75;;;0.00;99.90;;;;;;12318974;28;20089;-35
2024/01/07 00:46:13;;;;;;;133.02;124.43;;;0.00;99.90;;;;;;12312190;28;20055;-35
2024/01/07 00:52:15;;;;;;;131.40;123.13;;;0.10;99.90;;;;;;12299128;28;20079;-34
2024/01/07 00:58:17;;;;;;;133.18;124.95;;;0.00;99.90;;;;;;12334656;28;20050;-35
2024/01/07 01:04:19;;;;;;;129.65;121.68;;;0.00;99.90;;;;;;12306289;28;20086;-35
2024/01/07 01:10:21;;;;;;;129.80;121.85;;;0.00;99.90;;;;;;12305466;28;20059;-35
2024/01/07 01:16:24;;;;;;;125.38;117.47;;;0.00;99.90;;;;;;12311121;28;20054;-35
2024/01/07 01:22:26;;;;;;;128.75;120.60;;;0.00;99.90;;;;;;12314472;28;20498;-35
2024/01/07 01:28:28;;;;;;;133.32;124.93;;;0.00;99.90;;;;;;12330528;28;20457;-35
2024/01/07 01:34:30;;;;;;;123.55;115.68;;;0.00;99.90;;;;;;12320416;28;20046;-35
2024/01/07 01:40:32;;;;;;;123.18;115.55;;;-0.10;99.90;;;;;;12321088;28;20086;-35
2024/01/07 01:46:34;;;;;;;129.10;121.10;;;-0.10;99.90;;;;;;12315804;28;20051;-35
2024/01/07 01:52:36;;;;;;;131.23;123.05;;;-0.10;99.90;;;;;;12325386;28;20054;-35
2024/01/07 01:58:38;;;;;;;130.75;122.60;;;-0.10;99.90;;;;;;12318881;28;20047;-35
2024/01/07 02:04:40;;;;;;;124.30;116.60;;;-0.10;99.90;;;;;;12316237;28;20100;-35
2024/01/07 02:10:44;;;;;;;134.13;125.70;;;-0.20;99.90;;;;;;12330041;28;20112;-35
2024/01/07 02:16:46;;;;;;;128.02;120.00;;;-0.10;99.90;;;;;;12360963;28;20042;-34
2024/01/07 02:22:48;;;;;;;125.45;117.55;;;-0.20;99.90;;;;;;12339160;28;20138;-35
2024/01/07 02:28:50;;;;;;;124.40;116.50;;;-0.20;99.90;;;;;;12304746;28;20093;-35
2024/01/07 02:34:52;;;;;;;121.15;113.53;;;-0.20;99.90;;;;;;12389812;28;20125;-35
2024/01/07 02:40:54;;;;;;;117.82;110.40;;;-0.20;99.90;;;;;;12303680;28;20434;-34
2024/01/07 02:46:56;;;;;;;117.72;110.22;;;-0.30;99.90;;;;;;12328256;28;20048;-33
2024/01/07 02:52:58;;;;;;;124.72;117.25;;;-0.30;99.90;;;;;;12346533;28;20511;-35
2024/01/07 02:59:00;;;;;;;130.68;122.57;;;-0.30;99.90;;;;;;12316789;28;20046;-34
2024/01/07 03:05:02;;;;;;;163.70;153.18;;;-0.40;99.90;;;;;;12326861;28;20091;-35
2024/01/07 03:11:08;;;;;;;206.40;193.15;;;-0.40;99.90;;;;;;12310893;28;20047;-34
2024/01/07 03:17:14;;;;;;;279.52;262.10;;;-0.40;99.90;;;;;;12331155;28;20050;-35
2024/01/07 03:23:18;;;;;;;292.83;274.95;;;-0.50;99.90;;;;;;12316434;28;20098;-35
2024/01/07 03:29:20;;;;;;;383.80;359.80;;;-0.60;99.90;;;;;;12322598;28;20115;-35
2024/01/07 03:35:24;;;;;;;286.27;268.40;;;-0.70;99.90;;;;;;12304411;28;20501;-35
2024/01/07 03:41:25;;;;;;;438.80;412.23;;;-0.70;99.90;;;;;;12341761;28;20062;-34
2024/01/07 03:47:27;;;;;;;289.05;271.17;;;-0.90;99.90;;;;;;12306803;28;20502;-34
2024/01/07 03:53:29;;;;;;;281.58;263.90;;;-0.80;99.90;;;;;;12398928;28;20134;-35
2024/01/07 03:59:31;;;;;;;279.40;262.52;;;-0.90;99.90;;;;;;12321053;28;20399;-34
2024/01/07 04:05:33;;;;;;;257.15;241.23;;;-0.90;99.90;;;;;;12310212;28;20482;-36
2024/01/07 04:11:44;;;;;;;339.88;318.95;;;-0.90;99.90;;;;;;12323359;28;20038;-35
2024/01/07 04:17:46;;;;;;;245.13;230.15;;;-1.00;99.90;;;;;;12311928;28;20482;-34
2024/01/07 04:23:48;;;;;;;275.45;258.42;;;-1.00;99.90;;;;;;12320951;28;20062;-35
2024/01/07 04:29:50;;;;;;;219.65;205.68;;;-1.00;99.90;;;;;;12316785;28;20063;-34
2024/01/07 04:35:57;;;;;;;217.48;204.05;;;-1.00;99.90;;;;;;12312977;28;20082;-35
2024/01/07 04:41:59;;;;;;;206.52;194.00;;;-1.10;99.90;;;;;;12314151;28;20466;-35
2024/01/07 04:48:01;;;;;;;171.77;160.85;;;-1.00;99.90;;;;;;12302294;28;20055;-35
2024/01/07 04:54:03;;;;;;;181.32;170.20;;;-1.10;99.90;;;;;;12318542;28;20050;-34
2024/01/07 05:00:06;;;;;;;180.43;169.10;;;-1.10;99.90;;;;;;12338196;28;20138;-35
2024/01/07 05:06:11;;;;;;;200.40;188.20;;;-1.10;99.90;;;;;;12316482;28;20050;-34
2024/01/07 05:12:13;;;;;;;207.32;194.95;;;-1.00;99.90;;;;;;12310394;28;20043;-35
2024/01/07 05:18:14;;;;;;;197.93;185.75;;;-1.00;99.90;;;;;;12329829;28;20093;-35
2024/01/07 05:24:20;;;;;;;204.65;191.95;;;-1.10;99.90;;;;;;12334697;28;20455;-35
2024/01/07 05:30:22;;;;;;;177.40;166.45;;;-1.10;99.90;;;;;;12323567;28;20062;-35
2024/01/07 05:36:24;;;;;;;189.75;178.18;;;-1.20;99.90;;;;;;12319503;28;20394;-35
2024/01/07 05:42:26;;;;;;;231.10;217.07;;;-1.20;99.90;;;;;;12325026;28;20120;-35
2024/01/07 05:48:28;;;;;;;169.48;158.95;;;-1.20;99.90;;;;;;12309611;28;20142;-35
2024/01/07 05:54:30;;;;;;;182.75;171.25;;;-1.30;99.90;;;;;;12358982;28;20047;-35
2024/01/07 06:00:33;;;;;;;152.90;143.68;;;-1.30;99.90;;;;;;12329611;28;20389;-35
2024/01/07 06:06:35;;;;;;;148.88;140.05;;;-1.30;99.90;;;;;;12325880;28;20055;-33
2024/01/07 06:12:37;;;;;;;145.60;136.88;;;-1.30;99.90;;;;;;12322413;28;20047;-35
2024/01/07 06:18:39;;;;;;;140.20;131.68;;;-1.40;99.90;;;;;;12299944;28;20050;-35
2024/01/07 06:24:41;;;;;;;133.55;125.55;;;-1.30;99.90;;;;;;12348241;28;20054;-34
2024/01/07 06:30:43;;;;;;;125.40;118.00;;;-1.30;99.90;;;;;;12311108;28;20126;-34
2024/01/07 06:36:45;;;;;;;124.13;116.80;;;-1.40;99.90;;;;;;12325335;28;20075;-35
2024/01/07 06:42:48;;;;;;;114.53;107.90;;;-1.30;99.90;;;;;;12335323;28;20129;-35
2024/01/07 06:48:50;;;;;;;110.90;104.50;;;-1.30;99.90;;;;;;12300511;28;21433;-34
2024/01/07 06:54:53;;;;;;;109.28;102.75;;;-1.40;99.90;;;;;;12339826;28;20410;-35
2024/01/07 07:00:54;;;;;;;102.40;96.35;;;-1.40;99.90;;;;;;12311619;28;20053;-35
2024/01/07 07:06:57;;;;;;;96.45;91.05;;;-1.40;99.90;;;;;;12303348;28;20052;-35
2024/01/07 07:12:59;;;;;;;106.10;99.57;;;-1.50;99.90;;;;;;12298317;28;20054;-35
2024/01/07 07:19:01;;;;;;;98.03;92.57;;;-1.40;99.90;;;;;;12285331;28;20059;-35
2024/01/07 07:25:03;;;;;;;102.82;96.93;;;-1.40;99.90;;;;;;12308082;28;20046;-35
2024/01/07 07:31:05;;;;;;;104.47;98.38;;;-1.40;99.90;;;;;;12312602;28;20574;-35
2024/01/07 07:37:07;;;;;;;96.80;91.15;;;-1.30;99.90;;;;;;12318799;28;20272;-35
2024/01/07 07:43:09;;;;;;;98.32;92.53;;;-1.40;99.90;;;;;;12315468;28;20757;-35
2024/01/07 07:49:11;;;;;;;95.47;89.97;;;-1.50;99.90;;;;;;12327566;28;20208;-35
2024/01/07 07:55:13;;;;;;;93.68;88.35;;;-1.50;99.90;;;;;;12300225;28;20055;-35
2024/01/07 08:01:17;;;;;;;94.60;89.40;;;-1.50;99.90;;;;;;12368417;28;20059;-35
2024/01/07 08:07:19;;;;;;;88.65;83.78;;;-1.50;99.90;;;;;;12303407;28;20078;-35
2024/01/07 08:13:20;;;;;;;83.40;78.90;;;-1.50;99.90;;;;;;12288488;28;20137;-35
2024/01/07 08:19:22;;;;;;;68.78;65.07;;;-1.50;99.90;;;;;;12330338;28;20101;-35
2024/01/07 08:25:24;;;;;;;71.72;68.03;;;-1.50;99.90;;;;;;12305227;28;20051;-35
2024/01/07 08:31:26;;;;;;;66.00;62.42;;;-1.50;99.90;;;;;;12327196;28;20047;-35
2024/01/07 08:37:28;;;;;;;67.05;63.58;;;-1.60;99.90;;;;;;12326666;28;20056;-35
2024/01/07 08:43:30;;;;;;;67.15;63.65;;;-1.50;99.90;;;;;;12348409;28;20059;-35
2024/01/07 08:49:35;;;;;;;60.28;56.97;;;-1.50;99.90;;;;;;12306046;28;20054;-36
2024/01/07 08:55:37;;;;;;;70.60;66.88;;;-1.50;99.90;;;;;;12301273;28;20043;-35
2024/01/07 09:01:39;;;;;;;81.32;76.93;;;-1.40;99.90;;;;;;12349702;28;20102;-35
2024/01/07 09:07:41;;;;;;;85.68;78.40;;;-1.40;99.90;;;;;;12312439;28;20089;-35
2024/01/07 09:13:44;;;;;;;79.90;75.30;;;-1.50;99.90;;;;;;12322917;28;20475;-36
2024/01/07 09:19:47;;;;;;;76.43;72.05;;;-1.50;99.90;;;;;;12322530;28;20051;-35
2024/01/07 09:25:49;;;;;;;78.28;74.03;;;-1.50;99.90;;;;;;12337746;28;20051;-35
2024/01/07 09:31:51;;;;;;;80.90;76.50;;;-1.40;99.90;;;;;;12292264;28;20051;-35
2024/01/07 09:37:53;;;;;;;85.93;81.20;;;-1.40;99.90;;;;;;12303044;28;20486;-36
2024/01/07 09:43:57;;;;;;;86.25;81.47;;;-1.40;99.90;;;;;;12332113;28;20478;-36
2024/01/07 09:49:59;;;;;;;83.65;79.05;;;-1.40;99.90;;;;;;12318458;28;20047;-36
2024/01/07 09:56:17;;;;;;;77.18;73.03;;;-1.40;99.90;;;;;;12331848;28;20050;-35
2024/01/07 10:02:20;;;;;;;77.75;73.45;;;-1.30;99.90;;;;;;12306377;28;20198;-36
2024/01/07 10:08:22;;;;;;;73.95;69.88;;;-1.30;99.90;;;;;;12329545;28;20050;-35
2024/01/07 10:14:26;;;;;;;77.30;73.18;;;-1.10;99.90;;;;;;12319310;28;20427;-35
2024/01/07 10:20:32;;;;;;;77.22;72.90;;;-1.20;99.90;;;;;;12309806;28;20503;-35
2024/01/07 10:26:34;;;;;;;75.15;70.95;;;-1.30;99.90;;;;;;12310308;28;20189;-35
2024/01/07 10:32:37;;;;;;;74.30;70.18;;;-1.20;99.90;;;;;;12311832;28;22268;-36
2024/01/07 10:38:45;;;;;;;76.07;71.80;;;-1.10;99.90;;;;;;12308993;28;20047;-36
2024/01/07 10:44:47;;;;;;;74.57;70.17;;;-0.90;99.90;;;;;;12315818;28;20047;-36
2024/01/07 10:50:53;;;;;;;68.10;64.20;;;-1.10;99.90;;;;;;12300838;28;20356;-36
2024/01/07 10:56:58;;;;;;;69.15;65.05;;;-1.20;99.90;;;;;;12310021;28;20043;-45
2024/01/07 11:03:24;;;;;;;71.07;66.78;;;-1.10;99.90;;;;;;12325879;28;20066;-36
2024/01/07 11:09:36;;;;;;;67.13;63.28;;;-1.10;99.90;;;;;;12327120;28;20548;-35
2024/01/07 11:15:50;;;;;;;70.07;66.07;;;-1.00;99.90;;;;;;12289302;28;20046;-36
2024/01/07 11:21:52;;;;;;;66.80;62.90;;;-1.00;99.90;;;;;;12334023;28;20376;-35
2024/01/07 11:27:56;;;;;;;68.63;64.68;;;-1.00;99.90;;;;;;12339103;28;20055;-36
2024/01/07 11:33:58;;;;;;;63.55;59.92;;;-0.90;99.90;;;;;;12300035;28;20066;-34
2024/01/07 11:40:04;;;;;;;65.95;62.28;;;-1.00;99.90;;;;;;12337159;28;20051;-36
2024/01/07 11:46:06;;;;;;;69.28;65.30;;;-1.10;99.90;;;;;;12356021;28;20402;-36
2024/01/07 11:52:10;;;;;;;65.40;61.60;;;-0.90;99.90;;;;;;12334236;28;20398;-36
2024/01/07 11:58:12;;;;;;;67.47;63.70;;;-0.90;99.90;;;;;;12377282;28;20560;-36
2024/01/07 12:04:14;;;;;;;74.43;70.00;;;-0.90;99.90;;;;;;12297797;28;20078;-35
2024/01/07 12:10:17;;;;;;;72.03;67.72;;;-0.90;99.90;;;;;;12324940;28;20058;-35
2024/01/07 12:16:20;;;;;;;71.57;67.10;;;-0.80;99.90;;;;;;12339953;28;20045;-35
2024/01/07 12:22:22;;;;;;;73.70;69.50;;;-0.80;99.90;;;;;;12349727;28;20054;-35
2024/01/07 12:28:24;;;;;;;74.50;70.10;;;-0.70;99.90;;;;;;12326391;28;20073;-35
2024/01/07 12:34:26;;;;;;;70.15;66.07;;;-0.70;99.90;;;;;;12350075;28;20188;-36
2024/01/07 12:40:29;;;;;;;70.10;66.00;;;-0.70;99.90;;;;;;12313022;28;20059;-36
2024/01/07 12:46:31;;;;;;;71.53;67.40;;;-0.70;99.90;;;;;;12317436;28;20101;-36
2024/01/07 12:52:33;;;;;;;71.65;67.55;;;-0.70;99.90;;;;;;12307101;28;20130;-36
2024/01/07 12:58:35;;;;;;;75.20;71.10;;;-0.60;99.90;;;;;;12367668;28;20422;-35
2024/01/07 13:04:38;;;;;;;81.45;76.95;;;-0.50;99.90;;;;;;12287083;28;20337;-36
2024/01/07 13:10:40;;;;;;;77.00;72.57;;;-0.40;99.90;;;;;;12314161;28;20058;-36
2024/01/07 13:16:42;;;;;;;82.50;77.95;;;-0.40;99.90;;;;;;12337739;28;20050;-36
2024/01/07 13:22:44;;;;;;;80.95;76.55;;;-0.30;99.90;;;;;;12343989;28;20115;-36
2024/01/07 13:28:46;;;;;;;88.78;83.88;;;-0.30;99.90;;;;;;12337395;28;20050;-36
2024/01/07 13:34:48;;;;;;;86.60;81.60;;;-0.40;99.90;;;;;;12326898;28;20497;-36
2024/01/07 13:40:51;;;;;;;90.97;85.88;;;-0.50;99.90;;;;;;12350248;28;20053;-36
2024/01/07 13:46:53;;;;;;;93.68;88.10;;;-0.40;99.90;;;;;;12348028;28;20795;-36
2024/01/07 13:52:55;;;;;;;85.38;80.57;;;-0.30;99.90;;;;;;12317027;28;20137;-36
2024/01/07 13:58:57;;;;;;;83.53;78.45;;;-0.30;99.90;;;;;;12323640;28;20051;-36
2024/01/07 14:04:59;;;;;;;86.07;81.35;;;-0.30;99.90;;;;;;12311382;28;20418;-36
2024/01/07 14:11:02;;;;;;;77.75;73.55;;;-0.40;99.90;;;;;;12309842;28;20047;-37
2024/01/07 14:17:05;;;;;;;80.63;76.23;;;-0.40;99.90;;;;;;12294772;28;20138;-34
2024/01/07 14:23:06;;;;;;;78.75;74.47;;;-0.30;99.90;;;;;;12339325;28;20054;-36
2024/01/07 14:29:08;;;;;;;80.93;76.45;;;-0.30;99.90;;;;;;12317395;28;20141;-36
2024/01/07 14:35:18;;;;;;;87.90;83.10;;;-0.40;99.90;;;;;;12335603;28;20055;-36
2024/01/07 14:41:20;;;;;;;80.95;76.38;;;-0.30;99.90;;;;;;12314939;28;20081;-36
2024/01/07 14:47:22;;;;;;;78.65;74.35;;;-0.40;99.90;;;;;;12302319;28;20062;-35
2024/01/07 14:53:24;;;;;;;78.80;74.40;;;-0.40;99.90;;;;;;12313363;28;20050;-36
2024/01/07 14:59:26;;;;;;;78.72;74.43;;;-0.50;99.90;;;;;;12302513;28;20057;-36
2024/01/07 15:05:28;;;;;;;78.50;74.20;;;-0.60;99.90;;;;;;12332102;28;20053;-36
2024/01/07 15:11:30;;;;;;;81.00;76.65;;;-0.70;99.90;;;;;;12304227;28;20047;-35
2024/01/07 15:17:32;;;;;;;86.60;81.70;;;-0.70;99.90;;;;;;12305660;28;20055;-36
2024/01/07 15:23:34;;;;;;;86.00;81.13;;;-0.80;99.90;;;;;;12358834;28;20047;-36
2024/01/07 15:29:37;;;;;;;82.85;78.30;;;-0.80;99.90;;;;;;12310362;28;20138;-36
2024/01/07 15:35:38;;;;;;;77.78;73.28;;;-0.90;99.90;;;;;;12317030;28;20165;-35
2024/01/07 15:41:40;;;;;;;82.88;78.28;;;-0.90;99.90;;;;;;12314290;28;20061;-35
2024/01/07 15:47:42;;;;;;;83.30;78.30;;;-0.90;99.90;;;;;;12306990;28;20418;-36
2024/01/07 15:53:47;;;;;;;80.07;75.22;;;-1.10;99.90;;;;;;12316413;28;20051;-36
2024/01/07 15:59:49;;;;;;;82.47;77.78;;;-1.20;99.90;;;;;;12297939;28;20043;-36
2024/01/07 16:05:51;;;;;;;77.65;73.07;;;-1.30;99.90;;;;;;12311113;28;20673;-36
2024/01/07 16:11:53;;;;;;;76.35;71.95;;;-1.40;99.90;;;;;;12312270;28;20051;-35
2024/01/07 16:17:55;;;;;;;80.70;76.10;;;-1.40;99.90;;;;;;12320731;28;20049;-36
2024/01/07 16:23:57;;;;;;;80.40;75.70;;;-1.40;99.90;;;;;;12337444;28;20836;-36
2024/01/07 16:29:59;;;;;;;82.10;77.30;;;-1.40;99.90;;;;;;12315976;28;20062;-36
2024/01/07 16:36:05;;;;;;;78.30;73.70;;;-1.40;99.90;;;;;;12307992;28;20047;-36
2024/01/07 16:42:06;;;;;;;75.85;71.13;;;-1.40;99.90;;;;;;12330189;28;20486;-36
2024/01/07 16:48:08;;;;;;;80.47;75.28;;;-1.40;99.90;;;;;;12329646;28;20051;-36
2024/01/07 16:54:11;;;;;;;84.20;79.10;;;-1.40;99.90;;;;;;12324981;28;20077;-36
2024/01/07 17:00:15;;;;;;;81.97;77.03;;;-1.50;99.90;;;;;;12354677;28;20138;-36
2024/01/07 17:06:17;;;;;;;87.37;82.17;;;-1.50;99.90;;;;;;12340672;28;20054;-36
2024/01/07 17:12:19;;;;;;;85.32;80.32;;;-1.50;99.90;;;;;;12317597;28;20146;-35
2024/01/07 17:18:21;;;;;;;90.70;85.53;;;-1.50;99.90;;;;;;12304533;28;20525;-35
2024/01/07 17:24:23;;;;;;;95.05;89.50;;;-1.40;99.90;;;;;;12336933;28;20057;-35
2024/01/07 17:30:26;;;;;;;90.50;85.15;;;-1.50;99.90;;;;;;12328755;28;20078;-36
2024/01/07 17:36:33;;;;;;;88.00;82.53;;;-1.50;99.90;;;;;;12327029;28;20617;-36
2024/01/07 17:42:37;;;;;;;95.07;89.70;;;-1.40;99.90;;;;;;12336939;28;20137;-35
2024/01/07 17:48:39;;;;;;;96.25;90.55;;;-1.40;99.90;;;;;;12323959;28;20055;-36
2024/01/07 17:54:41;;;;;;;96.97;91.18;;;-1.30;99.90;;;;;;12321893;28;20134;-36
2024/01/07 18:00:43;;;;;;;95.10;89.20;;;-1.20;99.90;;;;;;12347047;28;20552;-35
2024/01/07 18:06:45;;;;;;;96.18;90.63;;;-1.10;99.90;;;;;;12325043;28;20055;-36
2024/01/07 18:12:47;;;;;;;93.75;88.15;;;-1.10;99.90;;;;;;12304107;28;20047;-36
2024/01/07 18:18:49;;;;;;;97.13;91.43;;;-1.10;99.90;;;;;;12314626;28;20090;-36
2024/01/07 18:24:51;;;;;;;91.47;85.93;;;-1.10;99.90;;;;;;12316223;28;20110;-36
2024/01/07 18:30:53;;;;;;;85.90;80.90;;;-1.00;99.90;;;;;;12319437;28;20061;-36
2024/01/07 18:36:56;;;;;;;82.20;77.43;;;-1.30;99.90;;;;;;12311293;28;20122;-35
2024/01/07 18:43:00;;;;;;;87.18;82.10;;;-1.40;99.90;;;;;;12324661;28;20490;-36
2024/01/07 18:49:03;;;;;;;;;;;-1.20;99.90;;;;;;12306416;28;20050;-36
2024/01/07 18:55:07;;;;;;;95.75;90.10;;;-1.20;99.90;;;;;;12312171;28;19971;-36
2024/01/07 19:01:09;;;;;;;93.47;87.88;;;-1.20;99.90;;;;;;12318096;28;20046;-36
2024/01/07 19:07:11;;;;;;;91.57;85.97;;;-1.20;99.90;;;;;;12326570;28;20059;-36
2024/01/07 19:13:13;;;;;;;90.72;85.03;;;-1.20;99.90;;;;;;12323982;28;20054;-36
2024/01/07 19:19:15;;;;;;;91.95;86.32;;;-1.20;99.90;;;;;;12304384;28;20054;-36
2024/01/07 19:25:17;;;;;;;82.15;77.30;;;-1.30;99.90;;;;;;12322674;28;20126;-35
2024/01/07 19:31:21;;;;;;;85.03;79.95;;;-1.70;99.90;;;;;;12316797;28;20051;-35
2024/01/07 19:37:23;;;;;;;82.80;77.93;;;-1.70;99.90;;;;;;12321668;28;20065;-36
2024/01/07 19:43:25;;;;;;;74.82;70.53;;;-1.80;99.90;;;;;;12366733;28;20074;-36
2024/01/07 19:49:28;;;;;;;76.90;72.20;;;-1.70;99.90;;;;;;12304999;28;20058;-36
2024/01/07 19:55:29;;;;;;;76.07;71.68;;;-1.80;99.90;;;;;;12298096;28;20252;-36
2024/01/07 20:01:31;;;;;;;75.13;70.53;;;-2.00;99.90;;;;;;12311117;28;20188;-36
2024/01/07 20:07:34;;;;;;;74.28;69.78;;;-1.90;99.90;;;;;;12302814;28;20058;-36
2024/01/07 20:13:36;;;;;;;75.28;70.90;;;-1.90;99.90;;;;;;12301606;28;20051;-36
2024/01/07 20:19:39;;;;;;;73.30;68.97;;;-1.90;99.90;;;;;;12280189;28;20083;-36
2024/01/07 20:25:42;;;;;;;76.18;71.72;;;-1.90;99.90;;;;;;12326175;28;20047;-35
2024/01/07 20:31:47;;;;;;;74.78;70.20;;;-2.10;99.90;;;;;;12316616;28;20062;-35
2024/01/07 20:37:49;;;;;;;;;;;-2.00;99.90;;;;;;12309263;28;20449;-35
2024/01/07 20:43:51;;;;;;;73.05;68.78;;;-1.90;99.90;;;;;;12356312;28;20313;-35
2024/01/07 20:49:53;;;;;;;74.20;69.95;;;-2.00;99.90;;;;;;12300801;28;20484;-34
2024/01/07 20:55:58;;;;;;;74.18;69.57;;;-2.20;99.90;;;;;;12311721;28;20096;-35
2024/01/07 21:02:00;;;;;;;68.85;64.65;;;-2.10;99.90;;;;;;12292250;28;20059;-35
2024/01/07 21:08:02;;;;;;;73.35;69.20;;;-2.00;99.90;;;;;;12312770;28;20047;-35
2024/01/07 21:14:05;;;;;;;70.32;66.03;;;-2.10;99.90;;;;;;12295444;28;20046;-36
2024/01/07 21:20:10;;;;;;;80.28;75.75;;;-2.20;99.90;;;;;;12314916;28;20047;-36
2024/01/07 21:26:12;;;;;;;76.00;71.63;;;-2.40;99.90;;;;;;12333161;28;20137;-36
2024/01/07 21:32:14;;;;;;;76.07;71.65;;;-2.20;99.90;;;;;;12309115;28;20052;-36
2024/01/07 21:38:16;;;;;;;78.20;73.80;;;-2.20;99.90;;;;;;12314948;28;20062;-35
2024/01/07 21:44:18;;;;;;;78.95;74.32;;;-2.20;99.90;;;;;;12360058;28;20134;-35
2024/01/07 21:50:20;;;;;;;74.97;70.55;;;-2.30;99.90;;;;;;12310931;28;20047;-36
2024/01/07 21:56:22;;;;;;;74.35;69.95;;;-2.30;99.90;;;;;;12338426;28;20048;-35
2024/01/07 22:02:24;;;;;;;76.50;72.10;;;-2.10;99.90;;;;;;12301133;28;20051;-36
2024/01/07 22:08:26;;;;;;;75.47;71.18;;;-2.20;99.90;;;;;;12331547;28;20042;-36
2024/01/07 22:14:28;;;;;;;70.82;66.63;;;-2.10;99.90;;;;;;12319434;28;20506;-36
2024/01/07 22:20:30;;;;;;;74.70;70.40;;;-1.90;99.90;;;;;;12296679;28;20043;-35
2024/01/07 22:26:32;;;;;;;77.95;73.28;;;-2.00;99.90;;;;;;12309369;28;20161;-36
2024/01/07 22:32:34;;;;;;;73.80;69.45;;;-2.20;99.90;;;;;;12314201;28;20112;-36
2024/01/07 22:38:36;;;;;;;76.35;71.78;;;-2.00;99.90;;;;;;12311069;28;20047;-35
2024/01/07 22:44:38;;;;;;;75.38;71.00;;;-2.20;99.90;;;;;;12321713;28;20685;-36
2024/01/07 22:50:42;;;;;;;75.15;70.70;;;-2.10;99.90;;;;;;12291666;28;20078;-35
2024/01/07 22:56:44;;;;;;;76.10;71.50;;;-2.10;99.90;;;;;;12335929;28;20053;-35
2024/01/07 23:02:47;;;;;;;76.10;71.30;;;-2.20;99.90;;;;;;12324552;28;20054;-36
2024/01/07 23:08:49;;;;;;;75.05;70.60;;;-2.00;99.90;;;;;;12334130;28;20422;-36
2024/01/07 23:14:51;;;;;;;82.38;77.28;;;-2.30;99.90;;;;;;12315358;28;20051;-36
2024/01/07 23:20:54;;;;;;;80.57;75.78;;;-2.20;99.90;;;;;;12305758;28;20054;-36
2024/01/07 23:26:56;;;;;;;83.28;78.18;;;-2.10;99.90;;;;;;12295500;28;20090;-36
2024/01/07 23:32:57;;;;;;;87.90;82.50;;;-2.00;99.90;;;;;;12341466;28;20043;-35
2024/01/07 23:39:00;;;;;;;90.93;85.32;;;-2.00;99.90;;;;;;12299613;28;20051;-36
2024/01/07 23:45:03;;;;;;;86.00;80.80;;;-2.20;99.90;;;;;;12304998;28;20051;-36
2024/01/07 23:51:05;;;;;;;87.47;82.18;;;-2.10;99.90;;;;;;12295976;28;20098;-35
2024/01/07 23:57:07;;;;;;;91.18;85.40;;;-1.90;99.90;;;;;;12368676;28;20041;-36
